Time;durP1;ratioP1;P1;durP2;ratioP2;P2;SDS_P1;SDS_P2;PMS_P1;PMS_P2;Temp;Humidity;BMP_temperature;BMP_pressure;BME280_temperature;BME280_humidity;BME280_pressure;Samples;Min_cycle;Max_cycle;Signal;HPM_P1;HPM_P2
2021/08/10 00:00:29;;;;;;;;;;;;;;;21.25;62.37;101183.44;2173841;40;116251;-53
2021/08/10 00:02:01;;;;;;;;;;;;;;;21.25;62.32;101186.25;2182213;39;114905;-53
2021/08/10 00:03:33;;;;;;;;;;;;;;;21.27;62.56;101189.56;2180116;39;116155;-53
2021/08/10 00:05:06;;;;;;;;;;;;;;;21.27;62.16;101200.81;2174725;40;113678;-53
2021/08/10 00:06:37;;;;;;;;;;;;;;;21.24;62.58;101182.59;2180103;39;114021;-53
2021/08/10 00:08:09;;;;;;;;;;;;;;;21.26;62.57;101188.72;2171660;39;114001;-53
2021/08/10 00:09:41;;;;;;;;;;;;;;;21.25;62.26;101189.06;2170735;40;113711;-53
2021/08/10 00:11:13;;;;;;;;;;;;;;;21.25;62.35;101191.88;2178008;40;113957;-53
2021/08/10 00:12:45;;;;;;;;;;;;;;;21.23;62.67;101180.09;2175091;40;113725;-53
2021/08/10 00:14:17;;;;;;;;;;;;;;;21.23;62.40;101182.91;2173546;40;113801;-53
2021/08/10 00:15:49;;;;;;;;;;;;;;;21.24;62.43;101190.19;2174461;40;113806;-53
2021/08/10 00:17:20;;;;;;;;;;;;;;;21.23;62.63;101182.91;2174214;40;113936;-53
2021/08/10 00:18:52;;;;;;;;;;;;;;;21.23;62.16;101180.09;2184636;39;114121;-53
2021/08/10 00:20:24;;;;;;;;;;;;;;;21.24;62.44;101178.97;2178504;39;113734;-53
2021/08/10 00:21:56;;;;;;;;;;;;;;;21.23;62.22;101183.75;2173094;40;114011;-53
2021/08/10 00:23:28;;;;;;;;;;;;;;;21.23;62.06;101191.34;2174102;40;113641;-53
2021/08/10 00:24:59;;;;;;;;;;;;;;;21.21;62.38;101183.19;2177477;40;114093;-53
2021/08/10 00:26:31;;;;;;;;;;;;;;;21.22;62.00;101190.50;2172590;40;114493;-53
2021/08/10 00:28:03;;;;;;;;;;;;;;;21.23;62.29;101191.34;2174159;40;115713;-53
2021/08/10 00:29:35;;;;;;;;;;;;;;;21.23;62.38;101182.91;2173334;40;114783;-53
2021/08/10 00:31:06;;;;;;;;;;;;;;;21.22;62.10;101193.31;2173796;40;113933;-52
2021/08/10 00:32:38;;;;;;;;;;;;;;;21.22;62.06;101192.47;2174600;40;114182;-52
2021/08/10 00:34:33;;;;;;;;;;;;;;;21.22;62.00;101192.47;2174402;40;115085;-52
2021/08/10 00:36:10;;;;;;;;;;;;;;;21.22;61.96;101201.72;2170765;40;114555;-53
2021/08/10 00:37:42;;;;;;;;;;;;;;;21.21;62.55;101193.63;2174272;40;114942;-53
2021/08/10 00:39:15;;;;;;;;;;;;;;;21.23;62.18;101188.53;2173401;40;115338;-52
2021/08/10 00:40:49;;;;;;;;;;;;;;;21.21;62.02;101183.19;2174410;40;113790;-53
2021/08/10 00:42:23;;;;;;;;;;;;;;;21.20;61.92;101178.75;2173640;40;114793;-53
2021/08/10 00:43:55;;;;;;;;;;;;;;;21.20;62.08;101180.72;2174257;40;114769;-53
2021/08/10 00:45:26;;;;;;;;;;;;;;;21.21;61.92;101188.81;2174320;40;114851;-53
2021/08/10 00:46:58;;;;;;;;;;;;;;;21.21;61.85;101191.63;2174737;40;114949;-53
2021/08/10 00:48:30;;;;;;;;;;;;;;;21.21;62.26;101185.19;2174112;40;115144;-53
2021/08/10 00:50:02;;;;;;;;;;;;;;;21.21;62.08;101188.00;2171084;40;115798;-53
2021/08/10 00:51:34;;;;;;;;;;;;;;;21.20;61.88;101180.72;2173034;40;115602;-53
2021/08/10 00:53:06;;;;;;;;;;;;;;;21.20;61.78;101189.97;2174219;40;114587;-53
2021/08/10 00:54:38;;;;;;;;;;;;;;;21.21;62.11;101182.38;2175080;40;115733;-52
2021/08/10 00:56:10;;;;;;;;;;;;;;;21.20;61.80;101186.34;2174290;40;114825;-53
2021/08/10 00:57:42;;;;;;;;;;;;;;;21.18;61.79;101169.78;2173448;40;115394;-53
2021/08/10 00:59:13;;;;;;;;;;;;;;;21.18;61.91;101183.81;2174308;40;115968;-53
2021/08/10 01:00:45;;;;;;;;;;;;;;;21.18;62.13;101183.81;2185275;39;115782;-53
2021/08/10 01:02:17;;;;;;;;;;;;;;;21.17;62.07;101178.50;2178001;39;114816;-53
2021/08/10 01:03:49;;;;;;;;;;;;;;;21.19;62.10;101179.03;2172913;40;115452;-53
2021/08/10 01:05:21;;;;;;;;;;;;;;;21.18;62.05;101188.59;2174383;40;115583;-53
2021/08/10 01:06:59;;;;;;;;;;;;;;;21.18;62.18;101182.97;2173639;40;115522;-53
2021/08/10 01:08:40;;;;;;;;;;;;;;;21.18;61.80;101191.41;2174067;40;116076;-53
2021/08/10 01:10:17;;;;;;;;;;;;;;;21.18;61.67;101183.81;2176687;40;115765;-52
2021/08/10 01:11:59;;;;;;;;;;;;;;;21.18;62.11;101185.78;2174019;40;114137;-53
2021/08/10 01:13:35;;;;;;;;;;;;;;;21.17;62.03;101189.75;2169212;40;114421;-53
2021/08/10 01:15:11;;;;;;;;;;;;;;;21.17;61.84;101184.13;2172704;40;113746;-53
2021/08/10 01:16:50;;;;;;;;;;;;;;;21.17;62.03;101186.94;2174083;40;113877;-52
2021/08/10 01:18:26;;;;;;;;;;;;;;;21.17;62.00;101192.53;2173936;40;113892;-53
2021/08/10 01:20:04;;;;;;;;;;;;;;;21.16;62.04;101191.75;2173424;40;113762;-53
2021/08/10 01:21:38;;;;;;;;;;;;;;;21.17;62.00;101186.94;2174392;40;113859;-53
2021/08/10 01:23:11;;;;;;;;;;;;;;;21.17;61.95;101195.34;2174282;40;113897;-52
2021/08/10 01:24:45;;;;;;;;;;;;;;;21.17;61.69;101193.38;2173677;40;113591;-53
2021/08/10 01:26:26;;;;;;;;;;;;;;;21.17;61.90;101193.38;2171699;40;113665;-53
2021/08/10 01:28:07;;;;;;;;;;;;;;;21.15;61.93;101195.69;2173986;40;113991;-52
2021/08/10 01:29:45;;;;;;;;;;;;;;;21.15;61.77;101198.50;2174257;40;113759;-53
2021/08/10 01:31:20;;;;;;;;;;;;;;;21.16;61.78;101191.75;2173485;40;113872;-53
2021/08/10 01:32:53;;;;;;;;;;;;;;;21.16;61.94;101190.91;2180302;40;114071;-53
2021/08/10 01:34:29;;;;;;;;;;;;;;;21.14;61.57;101194.00;2173468;40;114803;-53
2021/08/10 01:36:01;;;;;;;;;;;;;;;21.14;61.93;101196.81;2173238;40;114895;-53
2021/08/10 01:37:35;;;;;;;;;;;;;;;21.14;61.56;101199.63;2172943;40;115412;-53
2021/08/10 01:39:07;;;;;;;;;;;;;;;21.15;61.82;101197.66;2179395;40;114780;-53
2021/08/10 01:40:39;;;;;;;;;;;;;;;21.15;61.83;101201.31;2175601;40;114969;-54
2021/08/10 01:42:12;;;;;;;;;;;;;;;21.15;61.69;101201.31;2174397;40;115268;-53
2021/08/10 01:43:44;;;;;;;;;;;;;;;21.15;61.67;101211.72;2172404;40;114950;-53
2021/08/10 01:45:17;;;;;;;;;;;;;;;21.14;61.57;101210.03;2173316;40;114795;-53
2021/08/10 01:46:49;;;;;;;;;;;;;;;21.15;61.69;101203.28;2173898;40;113969;-53
2021/08/10 01:48:21;;;;;;;;;;;;;;;21.14;61.78;101210.03;2174120;40;114993;-53
2021/08/10 01:49:53;;;;;;;;;;;;;;;21.14;61.64;101201.59;2172903;40;113769;-52
2021/08/10 01:51:26;;;;;;;;;;;;;;;21.13;61.66;101205.53;2174056;40;114918;-53
2021/08/10 01:52:58;;;;;;;;;;;;;;;21.13;61.57;101209.19;2185661;39;114874;-53
2021/08/10 01:54:31;;;;;;;;;;;;;;;21.13;61.81;101220.44;2177326;39;115070;-53
2021/08/10 01:56:03;;;;;;;;;;;;;;;21.13;61.54;101212.00;2177868;40;115613;-52
2021/08/10 01:57:35;;;;;;;;;;;;;;;21.13;61.88;101211.16;2167362;40;114947;-53
2021/08/10 01:59:07;;;;;;;;;;;;;;;21.13;61.80;101208.34;2172141;40;115453;-53
2021/08/10 02:00:39;;;;;;;;;;;;;;;21.11;61.94;101214.28;2174371;40;115838;-52
2021/08/10 02:02:11;;;;;;;;;;;;;;;21.12;61.85;101213.09;2185490;39;115945;-53
2021/08/10 02:03:44;;;;;;;;;;;;;;;21.10;61.94;101218.22;2177817;39;115562;-53
2021/08/10 02:05:16;;;;;;;;;;;;;;;21.11;61.83;101207.81;2174505;40;115581;-53
2021/08/10 02:06:48;;;;;;;;;;;;;;;21.10;61.48;101212.59;2177969;40;115436;-53
2021/08/10 02:08:21;;;;;;;;;;;;;;;21.10;61.56;101214.56;2176791;40;115977;-53
2021/08/10 02:09:53;;;;;;;;;;;;;;;21.11;61.91;101228.31;2175010;40;115697;-53
2021/08/10 02:11:25;;;;;;;;;;;;;;;21.11;61.79;101230.28;2174768;40;115575;-52
2021/08/10 02:12:58;;;;;;;;;;;;;;;21.10;61.62;101226.63;2173708;40;115538;-53
2021/08/10 02:14:31;;;;;;;;;;;;;;;21.10;61.49;101225.81;2175131;40;115561;-53
2021/08/10 02:16:04;;;;;;;;;;;;;;;21.10;61.51;101225.81;2181086;40;115558;-53
2021/08/10 02:17:36;;;;;;;;;;;;;;;21.11;61.68;101224.66;2174328;40;114129;-52
2021/08/10 02:19:08;;;;;;;;;;;;;;;21.08;61.40;101226.09;2184432;39;114187;-53
2021/08/10 02:20:42;;;;;;;;;;;;;;;21.08;61.51;101220.47;2177924;39;113683;-53
2021/08/10 02:22:16;;;;;;;;;;;;;;;21.09;61.54;101212.88;2174834;40;113716;-53
2021/08/10 02:23:48;;;;;;;;;;;;;;;21.08;61.71;101220.47;2175152;40;113702;-53
2021/08/10 02:25:22;;;;;;;;;;;;;;;21.09;61.66;101226.94;2178020;40;113645;-53
2021/08/10 02:26:57;;;;;;;;;;;;;;;21.08;61.63;101225.25;2180700;39;114077;-53
2021/08/10 02:28:30;;;;;;;;;;;;;;;21.08;61.74;101219.66;2173756;40;114147;-56
2021/08/10 02:30:05;;;;;;;;;;;;;;;21.08;61.83;101228.06;2175110;40;114336;-53
2021/08/10 02:31:37;;;;;;;;;;;;;;;21.07;61.74;101232.03;2174851;40;113613;-53
2021/08/10 02:33:09;;;;;;;;;;;;;;;21.07;61.53;101220.81;2173673;40;114252;-53
2021/08/10 02:34:42;;;;;;;;;;;;;;;21.08;61.65;101222.44;2173340;40;113827;-53
2021/08/10 02:36:15;;;;;;;;;;;;;;;21.06;61.80;101219.13;2184327;39;113796;-53
2021/08/10 02:37:47;;;;;;;;;;;;;;;21.07;61.85;101215.19;2178682;39;113788;-53
2021/08/10 02:39:20;;;;;;;;;;;;;;;21.06;61.69;101217.16;2177640;40;113848;-53
2021/08/10 02:40:56;;;;;;;;;;;;;;;21.05;61.75;101218.28;2186453;39;115192;-53
2021/08/10 02:42:28;;;;;;;;;;;;;;;21.05;61.77;101212.66;2175172;40;114804;-53
2021/08/10 02:44:00;;;;;;;;;;;;;;;21.04;61.51;101216.63;2174773;40;115025;-53
2021/08/10 02:45:33;;;;;;;;;;;;;;;21.05;61.88;101223.91;2175002;40;115439;-53
2021/08/10 02:47:05;;;;;;;;;;;;;;;21.04;61.68;101216.63;2185763;39;114770;-53
2021/08/10 02:48:37;;;;;;;;;;;;;;;21.05;61.37;101221.09;2178137;39;114751;-53
2021/08/10 02:50:09;;;;;;;;;;;;;;;21.04;61.65;101219.44;2174502;40;115402;-53
2021/08/10 02:51:40;;;;;;;;;;;;;;;21.04;61.81;101213.81;2174266;40;114912;-53
2021/08/10 02:53:12;;;;;;;;;;;;;;;21.04;61.70;101227.84;2173660;40;115413;-54
2021/08/10 02:54:44;;;;;;;;;;;;;;;21.04;61.84;101219.44;2174228;40;114145;-52
2021/08/10 02:56:19;;;;;;;;;;;;;;;21.04;61.85;101219.44;2174856;40;114749;-52
2021/08/10 02:58:00;;;;;;;;;;;;;;;21.03;61.75;101223.38;2174462;40;114744;-53
2021/08/10 02:59:33;;;;;;;;;;;;;;;21.04;61.79;101225.03;2174151;40;114742;-53
2021/08/10 03:01:07;;;;;;;;;;;;;;;21.04;61.80;101235.44;2176615;40;115286;-53
2021/08/10 03:02:42;;;;;;;;;;;;;;;21.04;61.67;101232.63;2172092;40;115551;-53
2021/08/10 03:04:15;;;;;;;;;;;;;;;21.02;61.80;101230.16;2174481;40;115475;-52
2021/08/10 03:05:47;;;;;;;;;;;;;;;21.02;61.80;101223.69;2173760;40;115418;-53
2021/08/10 03:07:21;;;;;;;;;;;;;;;21.04;61.78;101229.81;2184348;39;115817;-52
2021/08/10 03:08:57;;;;;;;;;;;;;;;21.02;61.55;101232.97;2178155;39;115568;-53
2021/08/10 03:10:32;;;;;;;;;;;;;;;21.05;61.31;101228.69;2173044;40;115625;-53
2021/08/10 03:12:06;;;;;;;;;;;;;;;21.06;61.29;101230.38;2174568;40;115589;-53
2021/08/10 03:13:38;;;;;;;;;;;;;;;21.06;61.34;101233.19;2174787;40;116005;-53
2021/08/10 03:15:11;;;;;;;;;;;;;;;21.07;61.48;101223.63;2174349;40;115447;-52
2021/08/10 03:16:44;;;;;;;;;;;;;;;21.06;61.38;101230.38;2174817;40;114055;-53
2021/08/10 03:18:16;;;;;;;;;;;;;;;21.07;61.58;101229.22;2174521;40;115372;-53
2021/08/10 03:19:48;;;;;;;;;;;;;;;21.07;61.75;101232.03;2174066;40;114564;-53
2021/08/10 03:21:21;;;;;;;;;;;;;;;21.06;61.55;101236.81;2180207;39;115618;-53
2021/08/10 03:22:55;;;;;;;;;;;;;;;21.07;61.83;101230.06;2177059;40;115856;-52
2021/08/10 03:24:28;;;;;;;;;;;;;;;21.06;61.68;101230.38;2174922;40;113713;-53
2021/08/10 03:26:00;;;;;;;;;;;;;;;21.05;61.54;101229.53;2174518;40;113734;-53
2021/08/10 03:27:32;;;;;;;;;;;;;;;21.06;61.69;101228.41;2174482;40;113815;-53
2021/08/10 03:29:04;;;;;;;;;;;;;;;21.07;61.60;101232.88;2174488;40;114203;-53
2021/08/10 03:30:37;;;;;;;;;;;;;;;21.07;61.77;101229.22;2174540;40;113776;-53
2021/08/10 03:32:12;;;;;;;;;;;;;;;21.07;61.70;101229.22;2174481;40;113839;-52
2021/08/10 03:33:44;;;;;;;;;;;;;;;21.08;61.58;101234.53;2178825;40;114197;-52
2021/08/10 03:35:17;;;;;;;;;;;;;;;21.08;62.04;101230.88;2176169;40;113889;-53
2021/08/10 03:36:49;;;;;;;;;;;;;;;21.07;61.98;101230.06;2174634;40;113985;-53
2021/08/10 03:38:23;;;;;;;;;;;;;;;21.08;61.84;101236.50;2180129;40;114088;-53
2021/08/10 03:39:55;;;;;;;;;;;;;;;21.09;62.04;101226.94;2175996;40;113789;-53
2021/08/10 03:41:27;;;;;;;;;;;;;;;21.08;62.00;101226.09;2173751;40;114190;-53
2021/08/10 03:43:00;;;;;;;;;;;;;;;21.08;61.90;101228.06;2173716;40;113645;-53
2021/08/10 03:44:32;;;;;;;;;;;;;;;21.09;61.88;101221.31;2177090;40;113916;-53
2021/08/10 03:46:06;;;;;;;;;;;;;;;21.08;62.01;101228.91;2173403;40;114180;-53
2021/08/10 03:47:38;;;;;;;;;;;;;;;21.08;61.99;101228.06;2174382;40;114912;-52
2021/08/10 03:49:13;;;;;;;;;;;;;;;21.08;61.90;101226.09;2174639;40;113925;-52
2021/08/10 03:50:45;;;;;;;;;;;;;;;21.08;61.76;101219.66;2174598;40;114554;-53
2021/08/10 03:52:17;;;;;;;;;;;;;;;21.09;61.74;101221.31;2170994;40;114784;-53
2021/08/10 03:53:49;;;;;;;;;;;;;;;21.09;61.66;101221.31;2170582;40;114102;-53
2021/08/10 03:55:22;;;;;;;;;;;;;;;21.07;61.85;101218.84;2177789;40;114297;-53
2021/08/10 03:56:55;;;;;;;;;;;;;;;21.07;61.92;101234.84;2171561;40;114800;-52
2021/08/10 03:58:29;;;;;;;;;;;;;;;21.08;61.98;101225.25;2173792;40;114736;-53
2021/08/10 04:00:04;;;;;;;;;;;;;;;21.09;61.84;101226.94;2169244;40;115088;-53
2021/08/10 04:01:36;;;;;;;;;;;;;;;21.07;61.82;101221.66;2180318;40;115021;-53
2021/08/10 04:03:09;;;;;;;;;;;;;;;21.09;61.90;101226.94;2174713;40;114904;-53
2021/08/10 04:04:44;;;;;;;;;;;;;;;21.09;62.03;101218.50;2173987;40;115057;-53
2021/08/10 04:06:16;;;;;;;;;;;;;;;21.08;62.05;101217.66;2177187;40;114885;-52
2021/08/10 04:07:51;;;;;;;;;;;;;;;21.07;61.81;101221.66;2185752;39;115653;-53
2021/08/10 04:09:23;;;;;;;;;;;;;;;21.08;61.93;101222.44;2177951;39;115499;-54
2021/08/10 04:10:55;;;;;;;;;;;;;;;21.07;62.15;101227.25;2183895;39;114912;-53
2021/08/10 04:12:26;;;;;;;;;;;;;;;21.07;62.09;101215.19;2178024;39;115709;-53
2021/08/10 04:14:00;;;;;;;;;;;;;;;21.09;62.03;101216.53;2174355;40;115432;-53
2021/08/10 04:15:32;;;;;;;;;;;;;;;21.08;61.88;101217.66;2173698;40;115793;-53
2021/08/10 04:17:05;;;;;;;;;;;;;;;21.08;61.90;101211.22;2174476;40;115855;-53
2021/08/10 04:18:37;;;;;;;;;;;;;;;21.08;62.16;101205.59;2169787;40;115963;-53
2021/08/10 04:20:10;;;;;;;;;;;;;;;21.08;62.20;101206.44;2181854;39;115918;-53
2021/08/10 04:21:42;;;;;;;;;;;;;;;21.09;61.97;101210.09;2177677;39;115458;-53
2021/08/10 04:23:14;;;;;;;;;;;;;;;21.08;62.20;101209.25;2174579;40;116287;-52
2021/08/10 04:24:46;;;;;;;;;;;;;;;21.08;62.22;101212.06;2174882;40;115839;-53
2021/08/10 04:26:18;;;;;;;;;;;;;;;21.09;62.21;101212.88;2185934;39;115521;-53
2021/08/10 04:27:49;;;;;;;;;;;;;;;21.08;62.22;101217.66;2178228;39;114734;-53
2021/08/10 04:29:22;;;;;;;;;;;;;;;21.08;61.81;101223.28;2177057;40;115765;-53
2021/08/10 04:30:53;;;;;;;;;;;;;;;21.10;62.06;101223.00;2174473;40;113974;-53
2021/08/10 04:32:25;;;;;;;;;;;;;;;21.08;62.11;101225.25;2180741;39;113876;-53
2021/08/10 04:33:57;;;;;;;;;;;;;;;21.08;61.93;101220.47;2176753;39;113615;-53
2021/08/10 04:35:28;;;;;;;;;;;;;;;21.09;61.83;101224.13;2174604;40;113898;-53
2021/08/10 04:37:00;;;;;;;;;;;;;;;21.08;61.90;101228.06;2171661;40;114008;-53
2021/08/10 04:38:32;;;;;;;;;;;;;;;21.08;61.92;101234.53;2173665;40;113970;-53
2021/08/10 04:40:04;;;;;;;;;;;;;;;21.09;61.87;101230.59;2174250;40;113734;-53
2021/08/10 04:41:36;;;;;;;;;;;;;;;21.07;62.24;101232.88;2174532;40;113683;-53
2021/08/10 04:43:08;;;;;;;;;;;;;;;21.09;62.15;101229.75;2184932;39;113695;-53
2021/08/10 04:44:39;;;;;;;;;;;;;;;21.08;62.23;101239.31;2176127;39;113713;-53
2021/08/10 04:46:11;;;;;;;;;;;;;;;21.09;62.03;101238.19;2174861;40;113776;-53
2021/08/10 04:47:43;;;;;;;;;;;;;;;21.08;61.93;101239.31;2179841;40;113692;-53
2021/08/10 04:49:15;;;;;;;;;;;;;;;21.08;61.98;101250.53;2173227;40;113652;-53
2021/08/10 04:50:47;;;;;;;;;;;;;;;21.10;62.45;101243.50;2188748;39;113716;-53
2021/08/10 04:52:20;;;;;;;;;;;;;;;21.13;62.34;101242.06;2177604;39;113935;-53
2021/08/10 04:53:52;;;;;;;;;;;;;;;21.17;62.39;101249.59;2174459;40;115064;-54
2021/08/10 04:55:24;;;;;;;;;;;;;;;21.19;62.40;101247.31;2173742;40;115427;-53
2021/08/10 04:56:55;;;;;;;;;;;;;;;21.22;62.40;101246.69;2174405;40;115093;-53
2021/08/10 04:58:27;;;;;;;;;;;;;;;21.27;62.90;101242.97;2173405;40;114806;-53
2021/08/10 05:00:04;;;;;;;;;;;;;;;21.29;62.78;101237.88;2173966;40;114913;-53
2021/08/10 05:01:39;;;;;;;;;;;;;;;21.32;63.16;101242.88;2174415;40;114893;-52
2021/08/10 05:03:11;;;;;;;;;;;;;;;21.34;62.72;101237.81;2173924;40;114849;-53
2021/08/10 05:04:43;;;;;;;;;;;;;;;21.36;62.91;101235.50;2173932;40;114778;-52
2021/08/10 05:06:15;;;;;;;;;;;;;;;21.38;63.47;101236.06;2174181;40;114629;-52
2021/08/10 05:07:47;;;;;;;;;;;;;;;21.41;63.43;101240.22;2174161;40;114806;-53
2021/08/10 05:09:19;;;;;;;;;;;;;;;21.42;63.65;101237.09;2174206;40;114807;-53
2021/08/10 05:10:54;;;;;;;;;;;;;;;21.44;63.53;101236.81;2174475;40;115253;-53
2021/08/10 05:12:25;;;;;;;;;;;;;;;21.46;63.58;101238.16;2175957;40;115166;-53
2021/08/10 05:13:57;;;;;;;;;;;;;;;21.49;63.89;101240.34;2174150;40;115502;-53
2021/08/10 05:15:29;;;;;;;;;;;;;;;21.51;64.08;101237.22;2174290;40;115895;-53
2021/08/10 05:17:01;;;;;;;;;;;;;;;21.54;63.77;101236.59;2174496;40;115656;-53
2021/08/10 05:18:32;;;;;;;;;;;;;;;21.58;64.17;101244.09;2174160;40;115638;-53
2021/08/10 05:20:05;;;;;;;;;;;;;;;21.61;63.88;101245.50;2174416;40;115307;-53
2021/08/10 05:21:36;;;;;;;;;;;;;;;21.64;64.17;101237.25;2171261;40;115457;-52
2021/08/10 05:23:08;;;;;;;;;;;;;;;21.67;64.06;101250.69;2172466;40;115553;-52
2021/08/10 05:24:40;;;;;;;;;;;;;;;21.70;63.89;101250.09;2174333;40;115701;-53
2021/08/10 05:26:12;;;;;;;;;;;;;;;21.74;64.04;101241.88;2174090;40;115742;-53
2021/08/10 05:27:43;;;;;;;;;;;;;;;21.78;63.63;101240.09;2175118;40;115724;-53
2021/08/10 05:29:15;;;;;;;;;;;;;;;21.81;63.54;101247.91;2175412;40;115681;-53
2021/08/10 05:30:47;;;;;;;;;;;;;;;21.85;63.54;101237.69;2174278;40;116050;-53
2021/08/10 05:32:18;;;;;;;;;;;;;;;21.88;63.75;101244.72;2169784;40;115037;-54
2021/08/10 05:33:50;;;;;;;;;;;;;;;21.92;63.35;101249.41;2176187;40;115761;-53
2021/08/10 05:35:22;;;;;;;;;;;;;;;21.95;63.35;101260.06;2174089;40;113649;-53
2021/08/10 05:36:53;;;;;;;;;;;;;;;21.98;63.19;101253.84;2171574;40;114020;-53
2021/08/10 05:38:25;;;;;;;;;;;;;;;22.02;63.44;101256.84;2172589;40;116441;-52
2021/08/10 05:39:57;;;;;;;;;;;;;;;22.05;63.17;101259.03;2174370;40;113931;-53
2021/08/10 05:41:29;;;;;;;;;;;;;;;22.08;63.11;101264.84;2173721;40;114185;-53
2021/08/10 05:43:00;;;;;;;;;;;;;;;22.12;63.30;101265.91;2172281;40;114023;-57
2021/08/10 05:44:32;;;;;;;;;;;;;;;22.15;63.02;101261.66;2172577;40;114034;-53
2021/08/10 05:46:04;;;;;;;;;;;;;;;22.19;62.89;101268.31;2175224;40;114198;-53
2021/08/10 05:47:36;;;;;;;;;;;;;;;22.22;62.79;101267.69;2174926;40;113656;-53
2021/08/10 05:49:08;;;;;;;;;;;;;;;22.26;62.67;101276.38;2170493;40;114048;-53
2021/08/10 05:50:40;;;;;;;;;;;;;;;22.30;62.45;101263.31;2174911;40;113635;-53
2021/08/10 05:52:12;;;;;;;;;;;;;;;22.33;62.54;101276.78;2174820;40;113762;-53
2021/08/10 05:53:44;;;;;;;;;;;;;;;22.36;62.64;101267.69;2183926;39;113727;-53
2021/08/10 05:55:15;;;;;;;;;;;;;;;22.39;62.50;101275.53;2173915;40;113715;-53
2021/08/10 05:56:48;;;;;;;;;;;;;;;22.43;62.29;101273.75;2172718;40;113814;-53
2021/08/10 05:58:20;;;;;;;;;;;;;;;22.45;62.46;101283.53;2175035;40;114757;-53
2021/08/10 05:59:51;;;;;;;;;;;;;;;22.48;62.25;101277.31;2175016;40;114724;-53
2021/08/10 06:01:23;;;;;;;;;;;;;;;22.52;62.29;101278.34;2174937;40;113852;-53
2021/08/10 06:02:55;;;;;;;;;;;;;;;22.56;62.12;101287.81;2186312;39;114987;-53
2021/08/10 06:04:28;;;;;;;;;;;;;;;22.59;61.97;101277.91;2177923;39;115987;-53
2021/08/10 06:06:00;;;;;;;;;;;;;;;22.62;62.05;101280.91;2174524;40;114351;-52
2021/08/10 06:07:32;;;;;;;;;;;;;;;22.65;61.96;101284.25;2174019;40;114893;-52
2021/08/10 06:09:04;;;;;;;;;;;;;;;22.68;61.87;101284.47;2184398;39;114768;-53
2021/08/10 06:10:36;;;;;;;;;;;;;;;22.72;61.71;101279.91;2176271;39;114849;-53
2021/08/10 06:12:10;;;;;;;;;;;;;;;22.75;61.56;101284.06;2175226;40;115012;-53
2021/08/10 06:13:42;;;;;;;;;;;;;;;22.77;61.61;101274.16;2186002;39;114932;-53
2021/08/10 06:15:13;;;;;;;;;;;;;;;22.81;61.35;101280.81;2176046;40;114008;-53
2021/08/10 06:16:45;;;;;;;;;;;;;;;22.84;61.27;101280.19;2174429;40;113964;-53
2021/08/10 06:18:17;;;;;;;;;;;;;;;22.87;61.40;101290.00;2177540;40;114813;-53
2021/08/10 06:19:48;;;;;;;;;;;;;;;22.90;61.25;101290.19;2172091;40;115630;-53
2021/08/10 06:21:20;;;;;;;;;;;;;;;22.93;61.13;101278.31;2176314;40;114582;-53
2021/08/10 06:22:52;;;;;;;;;;;;;;;22.95;60.90;101287.25;2176646;40;116160;-53
2021/08/10 06:24:26;;;;;;;;;;;;;;;22.99;61.02;101290.28;2173951;40;115532;-53
2021/08/10 06:25:58;;;;;;;;;;;;;;;23.01;61.01;101294.47;2169187;40;115573;-53
2021/08/10 06:27:30;;;;;;;;;;;;;;;23.04;60.87;101288.19;2175283;40;115474;-56
2021/08/10 06:29:02;;;;;;;;;;;;;;;23.07;60.75;101288.72;2169077;40;115650;-53
2021/08/10 06:30:34;;;;;;;;;;;;;;;23.09;60.60;101292.88;2173993;40;114322;-53
2021/08/10 06:32:06;;;;;;;;;;;;;;;23.12;60.55;101288.59;2173921;40;114590;-53
2021/08/10 06:33:39;;;;;;;;;;;;;;;23.15;60.45;101285.13;2174947;40;115294;-53
2021/08/10 06:35:10;;;;;;;;;;;;;;;23.17;60.42;101294.13;2170723;40;115555;-53
2021/08/10 06:36:43;;;;;;;;;;;;;;;23.21;60.46;101286.69;2171301;40;115560;-52
2021/08/10 06:38:15;;;;;;;;;;;;;;;23.23;60.22;101288.03;2175038;40;115797;-53
2021/08/10 06:39:47;;;;;;;;;;;;;;;23.26;60.24;101295.81;2187904;39;115835;-53
2021/08/10 06:41:19;;;;;;;;;;;;;;;23.29;60.37;101291.56;2178394;39;113705;-53
2021/08/10 06:42:50;;;;;;;;;;;;;;;23.30;60.07;101296.88;2175047;40;113794;-53
2021/08/10 06:44:23;;;;;;;;;;;;;;;23.34;60.13;101299.91;2173712;40;113724;-53
2021/08/10 06:45:54;;;;;;;;;;;;;;;23.36;60.02;101294.75;2174044;40;113808;-53
2021/08/10 06:47:27;;;;;;;;;;;;;;;23.38;59.99;101298.94;2174816;40;113866;-53
2021/08/10 06:48:59;;;;;;;;;;;;;;;23.41;59.95;101312.38;2180262;40;113734;-52
2021/08/10 06:50:30;;;;;;;;;;;;;;;23.43;59.89;101301.63;2176548;40;113785;-53
2021/08/10 06:52:02;;;;;;;;;;;;;;;23.46;59.39;101300.19;2174353;40;113581;-52
2021/08/10 06:53:34;;;;;;;;;;;;;;;23.48;59.74;101293.06;2173138;40;113633;-53
2021/08/10 06:55:06;;;;;;;;;;;;;;;23.51;59.51;101300.06;2169990;40;113927;-53
2021/08/10 06:56:38;;;;;;;;;;;;;;;23.54;59.81;101299.41;2185572;39;113812;-53
2021/08/10 06:58:10;;;;;;;;;;;;;;;23.56;59.46;101299.09;2177365;39;114149;-52
2021/08/10 06:59:42;;;;;;;;;;;;;;;23.58;59.57;101302.41;2186104;39;113820;-52
2021/08/10 07:01:14;;;;;;;;;;;;;;;23.61;59.54;101313.06;2181195;39;113859;-53
2021/08/10 07:02:46;;;;;;;;;;;;;;;23.62;59.21;101300.66;2173438;40;114934;-53
2021/08/10 07:04:19;;;;;;;;;;;;;;;23.64;58.94;101298.31;2174097;40;115241;-53
2021/08/10 07:05:50;;;;;;;;;;;;;;;23.65;59.15;101312.13;2174885;40;114775;-53
2021/08/10 07:07:22;;;;;;;;;;;;;;;23.67;58.96;101300.50;2174840;40;114840;-53
2021/08/10 07:08:59;;;;;;;;;;;;;;;23.69;58.86;101304.66;2174702;40;114945;-53
2021/08/10 07:10:31;;;;;;;;;;;;;;;23.70;59.02;101302.69;2174186;40;114781;-53
2021/08/10 07:12:03;;;;;;;;;;;;;;;23.71;58.74;101307.19;2174437;40;115088;-53
2021/08/10 07:13:35;;;;;;;;;;;;;;;23.73;58.88;101305.69;2173762;40;115045;-53
2021/08/10 07:15:07;;;;;;;;;;;;;;;23.74;58.74;101303.72;2184055;39;114629;-53
2021/08/10 07:16:39;;;;;;;;;;;;;;;23.75;58.48;101306.22;2180439;39;113947;-53
2021/08/10 07:18:11;;;;;;;;;;;;;;;23.75;58.72;101306.22;2173681;40;115008;-53
2021/08/10 07:19:43;;;;;;;;;;;;;;;23.78;58.48;101307.56;2174524;40;114731;-53
2021/08/10 07:21:15;;;;;;;;;;;;;;;23.78;58.35;101311.22;2173944;40;115173;-53
2021/08/10 07:22:47;;;;;;;;;;;;;;;23.79;58.35;101314.88;2174235;40;114797;-53
2021/08/10 07:24:19;;;;;;;;;;;;;;;23.80;58.42;101310.91;2174765;40;117075;-53
2021/08/10 07:25:51;;;;;;;;;;;;;;;23.82;58.25;101312.22;2174216;40;116506;-53
2021/08/10 07:27:23;;;;;;;;;;;;;;;23.82;58.42;101308.56;2173858;40;115817;-53
2021/08/10 07:28:54;;;;;;;;;;;;;;;23.83;58.26;101308.25;2174489;40;115863;-53
2021/08/10 07:30:26;;;;;;;;;;;;;;;23.85;58.28;101316.38;2174628;40;115594;-53
2021/08/10 07:31:58;;;;;;;;;;;;;;;23.86;58.35;101320.88;2174029;40;115464;-53
2021/08/10 07:33:30;;;;;;;;;;;;;;;23.86;58.25;101315.22;2174395;40;115583;-53
2021/08/10 07:35:02;;;;;;;;;;;;;;;23.88;58.23;101318.59;2174056;40;115551;-53
2021/08/10 07:36:33;;;;;;;;;;;;;;;23.87;58.06;101317.75;2162629;40;115259;-52
2021/08/10 07:38:05;;;;;;;;;;;;;;;23.88;58.18;101321.41;2159016;40;115413;-53
2021/08/10 07:39:37;;;;;;;;;;;;;;;23.89;58.14;101328.72;2162192;40;115640;-53
2021/08/10 07:41:09;;;;;;;;;;;;;;;23.89;57.93;101323.06;2161881;40;116189;-53
2021/08/10 07:42:41;;;;;;;;;;;;;;;23.89;58.02;101323.88;2162135;40;115530;-53
2021/08/10 07:44:13;;;;;;;;;;;;;;;23.89;57.86;101329.53;2161301;40;116107;-52
2021/08/10 07:45:44;;;;;;;;;;;;;;;23.89;58.00;101332.34;2173049;40;115520;-53
2021/08/10 07:47:20;;;;;;;;;;;;;;;23.90;57.94;101334.03;2165009;40;114005;-53
2021/08/10 07:48:52;;;;;;;;;;;;;;;23.91;57.65;101323.56;2162732;40;113705;-52
2021/08/10 07:50:24;;;;;;;;;;;;;;;23.92;57.96;101331.72;2162480;40;113741;-53